sensor_id;sensor_type;location;lat;lon;timestamp;P1;durP1;ratioP1;P2;durP2;ratioP2
18066;SDS011;9158;51.528;7.192;2023-05-10T00:00:25;7.20;;;6.50;;
18066;SDS011;9158;51.528;7.192;2023-05-10T00:00:56;8.23;;;7.22;;
18066;SDS011;9158;51.528;7.192;2023-05-10T00:01:27;9.10;;;7.05;;
18066;SDS011;9158;51.528;7.192;2023-05-10T00:01:59;8.57;;;7.68;;
18066;SDS011;9158;51.528;7.192;2023-05-10T00:02:30;7.47;;;6.80;;
18066;SDS011;9158;51.528;7.192;2023-05-10T00:03:01;9.02;;;7.50;;
18066;SDS011;9158;51.528;7.192;2023-05-10T00:03:36;7.85;;;7.05;;
18066;SDS011;9158;51.528;7.192;2023-05-10T00:04:07;7.93;;;7.05;;
18066;SDS011;9158;51.528;7.192;2023-05-10T00:04:38;7.35;;;6.65;;
18066;SDS011;9158;51.528;7.192;2023-05-10T00:05:09;8.15;;;7.13;;
18066;SDS011;9158;51.528;7.192;2023-05-10T00:05:41;9.88;;;7.55;;
18066;SDS011;9158;51.528;7.192;2023-05-10T00:06:12;7.90;;;7.00;;
18066;SDS011;9158;51.528;7.192;2023-05-10T00:06:43;8.50;;;7.60;;
18066;SDS011;9158;51.528;7.192;2023-05-10T00:07:15;7.40;;;6.53;;
18066;SDS011;9158;51.528;7.192;2023-05-10T00:07:47;7.93;;;7.13;;
18066;SDS011;9158;51.528;7.192;2023-05-10T00:08:18;8.82;;;8.02;;
18066;SDS011;9158;51.528;7.192;2023-05-10T00:08:49;8.50;;;7.70;;
18066;SDS011;9158;51.528;7.192;2023-05-10T00:09:21;8.80;;;7.63;;
18066;SDS011;9158;51.528;7.192;2023-05-10T00:09:52;10.15;;;8.30;;
18066;SDS011;9158;51.528;7.192;2023-05-10T00:10:23;8.90;;;8.00;;
18066;SDS011;9158;51.528;7.192;2023-05-10T00:10:55;9.65;;;8.23;;
18066;SDS011;9158;51.528;7.192;2023-05-10T00:11:27;10.45;;;8.15;;
18066;SDS011;9158;51.528;7.192;2023-05-10T00:11:58;9.73;;;8.52;;
18066;SDS011;9158;51.528;7.192;2023-05-10T00:12:30;9.85;;;7.75;;
18066;SDS011;9158;51.528;7.192;2023-05-10T00:13:01;8.33;;;7.53;;
18066;SDS011;9158;51.528;7.192;2023-05-10T00:13:32;9.68;;;8.38;;
18066;SDS011;9158;51.528;7.192;2023-05-10T00:14:04;9.30;;;8.40;;
18066;SDS011;9158;51.528;7.192;2023-05-10T00:14:35;10.70;;;8.05;;
18066;SDS011;9158;51.528;7.192;2023-05-10T00:15:06;9.23;;;7.97;;
18066;SDS011;9158;51.528;7.192;2023-05-10T00:15:39;12.55;;;9.07;;
18066;SDS011;9158;51.528;7.192;2023-05-10T00:16:10;9.32;;;8.40;;
18066;SDS011;9158;51.528;7.192;2023-05-10T00:16:43;9.55;;;8.55;;
18066;SDS011;9158;51.528;7.192;2023-05-10T00:17:15;9.80;;;8.80;;
18066;SDS011;9158;51.528;7.192;2023-05-10T00:17:46;9.00;;;7.95;;
18066;SDS011;9158;51.528;7.192;2023-05-10T00:18:17;9.93;;;8.90;;
18066;SDS011;9158;51.528;7.192;2023-05-10T00:18:47;9.30;;;8.37;;
18066;SDS011;9158;51.528;7.192;2023-05-10T00:19:19;11.70;;;8.70;;
18066;SDS011;9158;51.528;7.192;2023-05-10T00:19:50;10.30;;;8.40;;
18066;SDS011;9158;51.528;7.192;2023-05-10T00:20:21;11.15;;;9.73;;
18066;SDS011;9158;51.528;7.192;2023-05-10T00:20:53;12.88;;;10.10;;
18066;SDS011;9158;51.528;7.192;2023-05-10T00:21:24;10.88;;;9.77;;
18066;SDS011;9158;51.528;7.192;2023-05-10T00:21:56;10.27;;;9.18;;
18066;SDS011;9158;51.528;7.192;2023-05-10T00:22:27;11.10;;;8.90;;
18066;SDS011;9158;51.528;7.192;2023-05-10T00:22:58;13.70;;;11.25;;
18066;SDS011;9158;51.528;7.192;2023-05-10T00:23:29;11.85;;;9.30;;
18066;SDS011;9158;51.528;7.192;2023-05-10T00:24:01;14.52;;;9.88;;
18066;SDS011;9158;51.528;7.192;2023-05-10T00:24:33;11.10;;;9.75;;
18066;SDS011;9158;51.528;7.192;2023-05-10T00:25:04;11.00;;;9.48;;
18066;SDS011;9158;51.528;7.192;2023-05-10T00:25:37;9.82;;;8.80;;
18066;SDS011;9158;51.528;7.192;2023-05-10T00:26:08;13.30;;;9.50;;
18066;SDS011;9158;51.528;7.192;2023-05-10T00:26:43;11.15;;;9.57;;
18066;SDS011;9158;51.528;7.192;2023-05-10T00:27:15;12.45;;;10.02;;
18066;SDS011;9158;51.528;7.192;2023-05-10T00:27:46;11.27;;;9.60;;
18066;SDS011;9158;51.528;7.192;2023-05-10T00:28:17;11.05;;;9.95;;
18066;SDS011;9158;51.528;7.192;2023-05-10T00:28:49;13.52;;;10.05;;
18066;SDS011;9158;51.528;7.192;2023-05-10T00:29:20;10.15;;;9.07;;
18066;SDS011;9158;51.528;7.192;2023-05-10T00:29:51;10.93;;;9.82;;
18066;SDS011;9158;51.528;7.192;2023-05-10T00:30:24;9.73;;;8.73;;
18066;SDS011;9158;51.528;7.192;2023-05-10T00:30:55;11.45;;;10.25;;
18066;SDS011;9158;51.528;7.192;2023-05-10T00:31:27;12.65;;;11.13;;
18066;SDS011;9158;51.528;7.192;2023-05-10T00:31:58;10.57;;;9.00;;
18066;SDS011;9158;51.528;7.192;2023-05-10T00:32:29;13.80;;;10.90;;
18066;SDS011;9158;51.528;7.192;2023-05-10T00:33:00;12.25;;;10.98;;
18066;SDS011;9158;51.528;7.192;2023-05-10T00:33:33;11.02;;;9.82;;
18066;SDS011;9158;51.528;7.192;2023-05-10T00:34:04;10.70;;;9.63;;
18066;SDS011;9158;51.528;7.192;2023-05-10T00:34:34;12.03;;;9.20;;
18066;SDS011;9158;51.528;7.192;2023-05-10T00:35:07;11.77;;;10.10;;
18066;SDS011;9158;51.528;7.192;2023-05-10T00:35:38;13.20;;;11.68;;
18066;SDS011;9158;51.528;7.192;2023-05-10T00:36:09;13.73;;;11.52;;
18066;SDS011;9158;51.528;7.192;2023-05-10T00:36:41;12.00;;;10.65;;
18066;SDS011;9158;51.528;7.192;2023-05-10T00:37:12;12.55;;;11.25;;
18066;SDS011;9158;51.528;7.192;2023-05-10T00:37:43;13.80;;;11.25;;
18066;SDS011;9158;51.528;7.192;2023-05-10T00:38:15;12.15;;;10.80;;
18066;SDS011;9158;51.528;7.192;2023-05-10T00:38:46;15.35;;;11.38;;
18066;SDS011;9158;51.528;7.192;2023-05-10T00:39:17;14.90;;;12.48;;
18066;SDS011;9158;51.528;7.192;2023-05-10T00:39:48;15.82;;;11.52;;
18066;SDS011;9158;51.528;7.192;2023-05-10T00:40:20;14.15;;;12.50;;
18066;SDS011;9158;51.528;7.192;2023-05-10T00:40:56;15.70;;;12.52;;
18066;SDS011;9158;51.528;7.192;2023-05-10T00:41:32;14.15;;;12.65;;
18066;SDS011;9158;51.528;7.192;2023-05-10T00:42:07;13.68;;;12.20;;
18066;SDS011;9158;51.528;7.192;2023-05-10T00:42:38;16.55;;;12.18;;
18066;SDS011;9158;51.528;7.192;2023-05-10T00:43:10;14.80;;;12.65;;
18066;SDS011;9158;51.528;7.192;2023-05-10T00:43:41;14.40;;;11.07;;
18066;SDS011;9158;51.528;7.192;2023-05-10T00:44:13;15.15;;;12.13;;
18066;SDS011;9158;51.528;7.192;2023-05-10T00:44:44;17.90;;;11.90;;
18066;SDS011;9158;51.528;7.192;2023-05-10T00:45:16;12.60;;;11.30;;
18066;SDS011;9158;51.528;7.192;2023-05-10T00:45:49;13.90;;;11.02;;
18066;SDS011;9158;51.528;7.192;2023-05-10T00:46:21;15.32;;;12.20;;
18066;SDS011;9158;51.528;7.192;2023-05-10T00:46:52;13.23;;;11.80;;
18066;SDS011;9158;51.528;7.192;2023-05-10T00:47:24;14.77;;;12.20;;
18066;SDS011;9158;51.528;7.192;2023-05-10T00:47:55;14.27;;;12.65;;
18066;SDS011;9158;51.528;7.192;2023-05-10T00:48:26;13.07;;;10.98;;
18066;SDS011;9158;51.528;7.192;2023-05-10T00:48:59;14.27;;;11.75;;
18066;SDS011;9158;51.528;7.192;2023-05-10T00:49:30;14.32;;;12.02;;
18066;SDS011;9158;51.528;7.192;2023-05-10T00:50:02;13.80;;;12.40;;
18066;SDS011;9158;51.528;7.192;2023-05-10T00:50:35;14.95;;;12.73;;
18066;SDS011;9158;51.528;7.192;2023-05-10T00:51:06;15.65;;;12.85;;
18066;SDS011;9158;51.528;7.192;2023-05-10T00:51:37;17.85;;;12.38;;
18066;SDS011;9158;51.528;7.192;2023-05-10T00:52:09;14.98;;;13.13;;
18066;SDS011;9158;51.528;7.192;2023-05-10T00:52:40;12.63;;;11.27;;
18066;SDS011;9158;51.528;7.192;2023-05-10T00:53:13;15.70;;;12.85;;
18066;SDS011;9158;51.528;7.192;2023-05-10T00:53:47;14.18;;;12.60;;
18066;SDS011;9158;51.528;7.192;2023-05-10T00:54:19;14.65;;;12.50;;
18066;SDS011;9158;51.528;7.192;2023-05-10T00:54:50;15.35;;;11.77;;
18066;SDS011;9158;51.528;7.192;2023-05-10T00:55:23;15.73;;;12.98;;
18066;SDS011;9158;51.528;7.192;2023-05-10T00:55:54;16.65;;;12.88;;
18066;SDS011;9158;51.528;7.192;2023-05-10T00:56:25;15.32;;;12.63;;
18066;SDS011;9158;51.528;7.192;2023-05-10T00:56:59;14.30;;;12.80;;
18066;SDS011;9158;51.528;7.192;2023-05-10T00:57:32;15.90;;;12.27;;
18066;SDS011;9158;51.528;7.192;2023-05-10T00:58:03;14.15;;;12.70;;
18066;SDS011;9158;51.528;7.192;2023-05-10T00:58:36;15.75;;;13.07;;
18066;SDS011;9158;51.528;7.192;2023-05-10T00:59:07;15.40;;;13.07;;
18066;SDS011;9158;51.528;7.192;2023-05-10T00:59:39;14.88;;;12.07;;
18066;SDS011;9158;51.528;7.192;2023-05-10T01:00:11;15.90;;;12.65;;
18066;SDS011;9158;51.528;7.192;2023-05-10T01:00:48;13.00;;;11.60;;
18066;SDS011;9158;51.528;7.192;2023-05-10T01:01:19;14.20;;;12.20;;
18066;SDS011;9158;51.528;7.192;2023-05-10T01:01:50;15.80;;;14.02;;
18066;SDS011;9158;51.528;7.192;2023-05-10T01:02:24;15.48;;;12.68;;
18066;SDS011;9158;51.528;7.192;2023-05-10T01:02:55;14.38;;;12.05;;
18066;SDS011;9158;51.528;7.192;2023-05-10T01:03:26;15.68;;;12.98;;
18066;SDS011;9158;51.528;7.192;2023-05-10T01:03:59;18.92;;;13.40;;
18066;SDS011;9158;51.528;7.192;2023-05-10T01:04:30;15.75;;;12.43;;
18066;SDS011;9158;51.528;7.192;2023-05-10T01:05:02;16.30;;;13.02;;
18066;SDS011;9158;51.528;7.192;2023-05-10T01:05:33;15.75;;;13.30;;
18066;SDS011;9158;51.528;7.192;2023-05-10T01:06:05;16.77;;;13.52;;
18066;SDS011;9158;51.528;7.192;2023-05-10T01:06:37;13.43;;;11.38;;
18066;SDS011;9158;51.528;7.192;2023-05-10T01:07:08;14.00;;;12.40;;
18066;SDS011;9158;51.528;7.192;2023-05-10T01:07:41;14.65;;;13.10;;
18066;SDS011;9158;51.528;7.192;2023-05-10T01:08:13;18.00;;;13.25;;
18066;SDS011;9158;51.528;7.192;2023-05-10T01:08:44;15.38;;;13.40;;
18066;SDS011;9158;51.528;7.192;2023-05-10T01:09:16;13.70;;;12.00;;
18066;SDS011;9158;51.528;7.192;2023-05-10T01:09:48;14.07;;;12.57;;
18066;SDS011;9158;51.528;7.192;2023-05-10T01:10:19;15.50;;;12.73;;
18066;SDS011;9158;51.528;7.192;2023-05-10T01:10:52;13.90;;;12.40;;
18066;SDS011;9158;51.528;7.192;2023-05-10T01:11:24;14.00;;;12.40;;
18066;SDS011;9158;51.528;7.192;2023-05-10T01:11:55;15.90;;;13.20;;
18066;SDS011;9158;51.528;7.192;2023-05-10T01:12:28;14.38;;;12.10;;
18066;SDS011;9158;51.528;7.192;2023-05-10T01:13:00;16.02;;;13.25;;
18066;SDS011;9158;51.528;7.192;2023-05-10T01:13:33;14.98;;;12.45;;
18066;SDS011;9158;51.528;7.192;2023-05-10T01:14:07;15.82;;;13.13;;
18066;SDS011;9158;51.528;7.192;2023-05-10T01:14:38;14.90;;;12.60;;
18066;SDS011;9158;51.528;7.192;2023-05-10T01:15:10;14.32;;;12.50;;
18066;SDS011;9158;51.528;7.192;2023-05-10T01:15:44;14.80;;;11.60;;
18066;SDS011;9158;51.528;7.192;2023-05-10T01:16:16;18.67;;;12.15;;
18066;SDS011;9158;51.528;7.192;2023-05-10T01:16:48;15.52;;;12.95;;
18066;SDS011;9158;51.528;7.192;2023-05-10T01:17:20;15.45;;;12.52;;
18066;SDS011;9158;51.528;7.192;2023-05-10T01:17:53;15.73;;;12.65;;
18066;SDS011;9158;51.528;7.192;2023-05-10T01:18:24;13.40;;;11.75;;
18066;SDS011;9158;51.528;7.192;2023-05-10T01:18:58;12.88;;;11.55;;
18066;SDS011;9158;51.528;7.192;2023-05-10T01:19:29;13.40;;;11.07;;
18066;SDS011;9158;51.528;7.192;2023-05-10T01:20:01;12.70;;;10.73;;
18066;SDS011;9158;51.528;7.192;2023-05-10T01:20:35;12.77;;;10.68;;
18066;SDS011;9158;51.528;7.192;2023-05-10T01:21:17;14.30;;;11.65;;
18066;SDS011;9158;51.528;7.192;2023-05-10T01:21:56;12.73;;;11.00;;
18066;SDS011;9158;51.528;7.192;2023-05-10T01:22:39;13.52;;;10.35;;
18066;SDS011;9158;51.528;7.192;2023-05-10T01:23:26;13.60;;;10.30;;
18066;SDS011;9158;51.528;7.192;2023-05-10T01:25:27;9.35;;;8.27;;
18066;SDS011;9158;51.528;7.192;2023-05-10T01:26:16;9.30;;;7.97;;
18066;SDS011;9158;51.528;7.192;2023-05-10T01:27:30;7.63;;;6.82;;
18066;SDS011;9158;51.528;7.192;2023-05-10T01:28:19;7.35;;;6.22;;
18066;SDS011;9158;51.528;7.192;2023-05-10T01:29:14;7.60;;;6.40;;
18066;SDS011;9158;51.528;7.192;2023-05-10T01:31:16;6.07;;;5.47;;
18066;SDS011;9158;51.528;7.192;2023-05-10T01:32:00;6.40;;;5.65;;
18066;SDS011;9158;51.528;7.192;2023-05-10T01:32:51;7.50;;;5.47;;
18066;SDS011;9158;51.528;7.192;2023-05-10T01:33:29;6.65;;;5.40;;
18066;SDS011;9158;51.528;7.192;2023-05-10T01:34:05;5.82;;;5.15;;
18066;SDS011;9158;51.528;7.192;2023-05-10T01:34:41;6.38;;;5.78;;
18066;SDS011;9158;51.528;7.192;2023-05-10T01:35:19;5.35;;;4.80;;
18066;SDS011;9158;51.528;7.192;2023-05-10T01:35:58;9.65;;;5.40;;
18066;SDS011;9158;51.528;7.192;2023-05-10T01:36:35;6.32;;;5.40;;
18066;SDS011;9158;51.528;7.192;2023-05-10T01:37:15;6.40;;;5.03;;
18066;SDS011;9158;51.528;7.192;2023-05-10T01:37:56;5.35;;;4.85;;
18066;SDS011;9158;51.528;7.192;2023-05-10T01:38:33;6.85;;;5.90;;
18066;SDS011;9158;51.528;7.192;2023-05-10T01:39:13;6.45;;;5.78;;
18066;SDS011;9158;51.528;7.192;2023-05-10T01:39:47;5.60;;;5.05;;
18066;SDS011;9158;51.528;7.192;2023-05-10T01:40:26;5.10;;;4.40;;
18066;SDS011;9158;51.528;7.192;2023-05-10T01:41:03;7.05;;;5.60;;
18066;SDS011;9158;51.528;7.192;2023-05-10T01:41:44;5.53;;;4.80;;
18066;SDS011;9158;51.528;7.192;2023-05-10T01:42:20;5.78;;;5.07;;
18066;SDS011;9158;51.528;7.192;2023-05-10T01:42:54;5.95;;;5.38;;
18066;SDS011;9158;51.528;7.192;2023-05-10T01:43:33;5.25;;;4.75;;
18066;SDS011;9158;51.528;7.192;2023-05-10T01:44:11;5.85;;;5.15;;
18066;SDS011;9158;51.528;7.192;2023-05-10T01:44:52;4.93;;;4.43;;
18066;SDS011;9158;51.528;7.192;2023-05-10T01:45:30;4.97;;;4.30;;
18066;SDS011;9158;51.528;7.192;2023-05-10T01:46:05;5.32;;;4.82;;
18066;SDS011;9158;51.528;7.192;2023-05-10T01:46:41;4.65;;;4.25;;
18066;SDS011;9158;51.528;7.192;2023-05-10T01:47:15;6.22;;;5.00;;
18066;SDS011;9158;51.528;7.192;2023-05-10T01:48:03;5.65;;;4.70;;
18066;SDS011;9158;51.528;7.192;2023-05-10T01:48:38;5.55;;;4.43;;
18066;SDS011;9158;51.528;7.192;2023-05-10T01:49:18;6.95;;;5.05;;
18066;SDS011;9158;51.528;7.192;2023-05-10T01:49:54;5.80;;;5.30;;
18066;SDS011;9158;51.528;7.192;2023-05-10T01:50:28;6.18;;;5.57;;
18066;SDS011;9158;51.528;7.192;2023-05-10T01:51:00;5.72;;;4.82;;
18066;SDS011;9158;51.528;7.192;2023-05-10T01:51:35;5.75;;;5.00;;
18066;SDS011;9158;51.528;7.192;2023-05-10T01:52:11;5.80;;;5.18;;
18066;SDS011;9158;51.528;7.192;2023-05-10T01:52:47;5.55;;;5.03;;
18066;SDS011;9158;51.528;7.192;2023-05-10T01:53:24;5.45;;;4.95;;
18066;SDS011;9158;51.528;7.192;2023-05-10T01:53:59;6.35;;;5.32;;
18066;SDS011;9158;51.528;7.192;2023-05-10T01:54:32;7.78;;;4.68;;
18066;SDS011;9158;51.528;7.192;2023-05-10T01:55:05;6.47;;;5.00;;
18066;SDS011;9158;51.528;7.192;2023-05-10T01:55:41;6.38;;;4.95;;
18066;SDS011;9158;51.528;7.192;2023-05-10T01:56:16;4.93;;;4.43;;
18066;SDS011;9158;51.528;7.192;2023-05-10T01:56:50;5.35;;;4.85;;
18066;SDS011;9158;51.528;7.192;2023-05-10T01:57:27;5.65;;;5.05;;
18066;SDS011;9158;51.528;7.192;2023-05-10T01:58:04;9.50;;;5.25;;
18066;SDS011;9158;51.528;7.192;2023-05-10T01:58:38;6.35;;;5.43;;
18066;SDS011;9158;51.528;7.192;2023-05-10T01:59:12;8.18;;;5.80;;
18066;SDS011;9158;51.528;7.192;2023-05-10T01:59:49;5.80;;;5.18;;
18066;SDS011;9158;51.528;7.192;2023-05-10T02:00:21;6.95;;;6.25;;
18066;SDS011;9158;51.528;7.192;2023-05-10T02:00:55;7.43;;;5.43;;
18066;SDS011;9158;51.528;7.192;2023-05-10T02:01:30;5.90;;;5.30;;
18066;SDS011;9158;51.528;7.192;2023-05-10T02:02:03;8.50;;;6.50;;
18066;SDS011;9158;51.528;7.192;2023-05-10T02:02:38;6.75;;;6.15;;
18066;SDS011;9158;51.528;7.192;2023-05-10T02:03:12;6.78;;;6.00;;
18066;SDS011;9158;51.528;7.192;2023-05-10T02:03:45;6.50;;;5.80;;
18066;SDS011;9158;51.528;7.192;2023-05-10T02:04:18;8.82;;;6.75;;
18066;SDS011;9158;51.528;7.192;2023-05-10T02:04:52;7.30;;;6.20;;
18066;SDS011;9158;51.528;7.192;2023-05-10T02:05:25;7.20;;;6.47;;
18066;SDS011;9158;51.528;7.192;2023-05-10T02:06:00;10.20;;;6.78;;
18066;SDS011;9158;51.528;7.192;2023-05-10T02:06:31;8.27;;;7.03;;
18066;SDS011;9158;51.528;7.192;2023-05-10T02:07:04;7.75;;;6.75;;
18066;SDS011;9158;51.528;7.192;2023-05-10T02:07:37;10.77;;;7.10;;
18066;SDS011;9158;51.528;7.192;2023-05-10T02:08:11;8.27;;;6.88;;
18066;SDS011;9158;51.528;7.192;2023-05-10T02:08:43;8.02;;;7.07;;
18066;SDS011;9158;51.528;7.192;2023-05-10T02:09:16;9.57;;;7.22;;
18066;SDS011;9158;51.528;7.192;2023-05-10T02:09:50;7.97;;;7.18;;
18066;SDS011;9158;51.528;7.192;2023-05-10T02:10:21;10.23;;;7.22;;
18066;SDS011;9158;51.528;7.192;2023-05-10T02:10:54;8.20;;;6.70;;
18066;SDS011;9158;51.528;7.192;2023-05-10T02:11:27;7.85;;;7.05;;
18066;SDS011;9158;51.528;7.192;2023-05-10T02:12:00;7.82;;;7.13;;
18066;SDS011;9158;51.528;7.192;2023-05-10T02:12:35;8.55;;;7.05;;
18066;SDS011;9158;51.528;7.192;2023-05-10T02:13:08;7.82;;;7.05;;
18066;SDS011;9158;51.528;7.192;2023-05-10T02:13:41;9.18;;;7.30;;
18066;SDS011;9158;51.528;7.192;2023-05-10T02:14:14;7.68;;;6.80;;
18066;SDS011;9158;51.528;7.192;2023-05-10T02:14:47;7.25;;;6.55;;
18066;SDS011;9158;51.528;7.192;2023-05-10T02:15:22;9.55;;;7.30;;
18066;SDS011;9158;51.528;7.192;2023-05-10T02:15:54;8.52;;;7.45;;
18066;SDS011;9158;51.528;7.192;2023-05-10T02:16:28;7.88;;;7.07;;
18066;SDS011;9158;51.528;7.192;2023-05-10T02:17:01;10.13;;;8.63;;
18066;SDS011;9158;51.528;7.192;2023-05-10T02:17:34;8.13;;;7.43;;
18066;SDS011;9158;51.528;7.192;2023-05-10T02:18:08;9.70;;;7.82;;
18066;SDS011;9158;51.528;7.192;2023-05-10T02:18:42;8.13;;;7.28;;
18066;SDS011;9158;51.528;7.192;2023-05-10T02:19:13;9.23;;;7.63;;
18066;SDS011;9158;51.528;7.192;2023-05-10T02:19:45;8.25;;;7.45;;
18066;SDS011;9158;51.528;7.192;2023-05-10T02:20:19;7.13;;;6.43;;
18066;SDS011;9158;51.528;7.192;2023-05-10T02:20:52;8.38;;;7.30;;
18066;SDS011;9158;51.528;7.192;2023-05-10T02:21:25;10.93;;;8.55;;
18066;SDS011;9158;51.528;7.192;2023-05-10T02:21:58;8.98;;;8.10;;
18066;SDS011;9158;51.528;7.192;2023-05-10T02:22:31;10.25;;;7.97;;
18066;SDS011;9158;51.528;7.192;2023-05-10T02:23:03;8.95;;;7.93;;
18066;SDS011;9158;51.528;7.192;2023-05-10T02:23:35;8.15;;;7.35;;
18066;SDS011;9158;51.528;7.192;2023-05-10T02:24:07;8.40;;;7.60;;
18066;SDS011;9158;51.528;7.192;2023-05-10T02:24:39;9.88;;;7.32;;
18066;SDS011;9158;51.528;7.192;2023-05-10T02:25:12;8.45;;;7.15;;
18066;SDS011;9158;51.528;7.192;2023-05-10T02:25:45;9.57;;;7.78;;
18066;SDS011;9158;51.528;7.192;2023-05-10T02:26:18;10.73;;;8.00;;
18066;SDS011;9158;51.528;7.192;2023-05-10T02:26:53;7.10;;;6.40;;
18066;SDS011;9158;51.528;7.192;2023-05-10T02:27:25;8.45;;;7.53;;
18066;SDS011;9158;51.528;7.192;2023-05-10T02:27:59;9.85;;;8.07;;
18066;SDS011;9158;51.528;7.192;2023-05-10T02:28:34;7.30;;;6.60;;
18066;SDS011;9158;51.528;7.192;2023-05-10T02:29:07;10.25;;;7.20;;
18066;SDS011;9158;51.528;7.192;2023-05-10T02:29:40;8.38;;;7.50;;
18066;SDS011;9158;51.528;7.192;2023-05-10T02:30:13;8.70;;;7.35;;
18066;SDS011;9158;51.528;7.192;2023-05-10T02:30:45;8.90;;;8.00;;
18066;SDS011;9158;51.528;7.192;2023-05-10T02:31:17;8.93;;;7.78;;
18066;SDS011;9158;51.528;7.192;2023-05-10T02:31:51;8.20;;;7.38;;
18066;SDS011;9158;51.528;7.192;2023-05-10T02:32:24;9.65;;;8.10;;
18066;SDS011;9158;51.528;7.192;2023-05-10T02:32:57;9.75;;;7.40;;
18066;SDS011;9158;51.528;7.192;2023-05-10T02:33:32;10.52;;;6.97;;
18066;SDS011;9158;51.528;7.192;2023-05-10T02:34:04;10.48;;;7.95;;
18066;SDS011;9158;51.528;7.192;2023-05-10T02:34:37;8.93;;;7.10;;
18066;SDS011;9158;51.528;7.192;2023-05-10T02:35:11;10.05;;;7.38;;
18066;SDS011;9158;51.528;7.192;2023-05-10T02:35:42;8.88;;;7.85;;
18066;SDS011;9158;51.528;7.192;2023-05-10T02:36:14;8.23;;;6.88;;
18066;SDS011;9158;51.528;7.192;2023-05-10T02:36:47;8.95;;;6.55;;
18066;SDS011;9158;51.528;7.192;2023-05-10T02:37:20;7.90;;;7.10;;
18066;SDS011;9158;51.528;7.192;2023-05-10T02:37:52;7.97;;;7.18;;
18066;SDS011;9158;51.528;7.192;2023-05-10T02:38:23;9.15;;;7.90;;
18066;SDS011;9158;51.528;7.192;2023-05-10T02:38:58;10.77;;;8.73;;
18066;SDS011;9158;51.528;7.192;2023-05-10T02:39:31;10.40;;;7.32;;
18066;SDS011;9158;51.528;7.192;2023-05-10T02:40:03;8.20;;;7.40;;
18066;SDS011;9158;51.528;7.192;2023-05-10T02:40:36;8.00;;;7.20;;
18066;SDS011;9158;51.528;7.192;2023-05-10T02:41:08;7.95;;;6.40;;
18066;SDS011;9158;51.528;7.192;2023-05-10T02:41:41;8.60;;;7.03;;
18066;SDS011;9158;51.528;7.192;2023-05-10T02:42:15;7.72;;;6.30;;
18066;SDS011;9158;51.528;7.192;2023-05-10T02:42:50;8.43;;;7.32;;
18066;SDS011;9158;51.528;7.192;2023-05-10T02:43:24;7.55;;;6.65;;
18066;SDS011;9158;51.528;7.192;2023-05-10T02:43:57;8.40;;;7.50;;
18066;SDS011;9158;51.528;7.192;2023-05-10T02:44:32;8.48;;;7.38;;
18066;SDS011;9158;51.528;7.192;2023-05-10T02:45:07;9.50;;;6.57;;
18066;SDS011;9158;51.528;7.192;2023-05-10T02:45:41;7.75;;;6.43;;
18066;SDS011;9158;51.528;7.192;2023-05-10T02:46:14;8.10;;;6.50;;
18066;SDS011;9158;51.528;7.192;2023-05-10T02:46:45;7.37;;;5.83;;
18066;SDS011;9158;51.528;7.192;2023-05-10T02:47:18;6.95;;;6.10;;
18066;SDS011;9158;51.528;7.192;2023-05-10T02:47:50;6.78;;;5.63;;
18066;SDS011;9158;51.528;7.192;2023-05-10T02:48:21;9.48;;;6.00;;
18066;SDS011;9158;51.528;7.192;2023-05-10T02:48:54;7.63;;;6.47;;
18066;SDS011;9158;51.528;7.192;2023-05-10T02:49:25;8.77;;;6.60;;
18066;SDS011;9158;51.528;7.192;2023-05-10T02:49:57;7.53;;;6.35;;
18066;SDS011;9158;51.528;7.192;2023-05-10T02:50:28;6.70;;;5.72;;
18066;SDS011;9158;51.528;7.192;2023-05-10T02:51:04;7.80;;;6.82;;
18066;SDS011;9158;51.528;7.192;2023-05-10T02:51:40;7.53;;;6.32;;
18066;SDS011;9158;51.528;7.192;2023-05-10T02:52:14;8.07;;;6.70;;
18066;SDS011;9158;51.528;7.192;2023-05-10T02:52:59;7.45;;;5.65;;
18066;SDS011;9158;51.528;7.192;2023-05-10T02:53:33;7.78;;;6.72;;
18066;SDS011;9158;51.528;7.192;2023-05-10T02:54:09;8.20;;;6.95;;
18066;SDS011;9158;51.528;7.192;2023-05-10T02:54:44;7.35;;;6.05;;
18066;SDS011;9158;51.528;7.192;2023-05-10T02:55:19;7.18;;;6.38;;
18066;SDS011;9158;51.528;7.192;2023-05-10T02:55:57;7.10;;;6.40;;
18066;SDS011;9158;51.528;7.192;2023-05-10T02:56:34;7.93;;;6.43;;
18066;SDS011;9158;51.528;7.192;2023-05-10T02:57:11;8.95;;;6.47;;
18066;SDS011;9158;51.528;7.192;2023-05-10T02:57:46;9.07;;;7.28;;
18066;SDS011;9158;51.528;7.192;2023-05-10T02:58:23;10.80;;;6.90;;
18066;SDS011;9158;51.528;7.192;2023-05-10T02:58:54;11.40;;;7.35;;
18066;SDS011;9158;51.528;7.192;2023-05-10T02:59:25;8.40;;;7.60;;
18066;SDS011;9158;51.528;7.192;2023-05-10T02:59:57;10.75;;;8.43;;
18066;SDS011;9158;51.528;7.192;2023-05-10T03:00:30;7.95;;;6.82;;
18066;SDS011;9158;51.528;7.192;2023-05-10T03:01:02;9.48;;;8.00;;
18066;SDS011;9158;51.528;7.192;2023-05-10T03:01:34;8.77;;;7.68;;
18066;SDS011;9158;51.528;7.192;2023-05-10T03:02:05;8.93;;;6.90;;
18066;SDS011;9158;51.528;7.192;2023-05-10T03:02:36;8.85;;;7.95;;
18066;SDS011;9158;51.528;7.192;2023-05-10T03:03:07;10.77;;;8.30;;
18066;SDS011;9158;51.528;7.192;2023-05-10T03:03:39;10.88;;;8.40;;
18066;SDS011;9158;51.528;7.192;2023-05-10T03:04:12;11.18;;;8.23;;
18066;SDS011;9158;51.528;7.192;2023-05-10T03:04:43;13.25;;;9.70;;
18066;SDS011;9158;51.528;7.192;2023-05-10T03:05:14;10.20;;;8.80;;
18066;SDS011;9158;51.528;7.192;2023-05-10T03:05:46;13.00;;;9.77;;
18066;SDS011;9158;51.528;7.192;2023-05-10T03:06:17;12.48;;;10.55;;
18066;SDS011;9158;51.528;7.192;2023-05-10T03:06:48;13.35;;;10.55;;
18066;SDS011;9158;51.528;7.192;2023-05-10T03:07:20;12.70;;;9.35;;
18066;SDS011;9158;51.528;7.192;2023-05-10T03:07:52;14.07;;;9.38;;
18066;SDS011;9158;51.528;7.192;2023-05-10T03:08:23;12.07;;;9.43;;
18066;SDS011;9158;51.528;7.192;2023-05-10T03:08:55;14.23;;;10.25;;
18066;SDS011;9158;51.528;7.192;2023-05-10T03:09:27;10.85;;;9.73;;
18066;SDS011;9158;51.528;7.192;2023-05-10T03:10:00;15.05;;;10.50;;
18066;SDS011;9158;51.528;7.192;2023-05-10T03:10:33;12.60;;;10.25;;
18066;SDS011;9158;51.528;7.192;2023-05-10T03:11:16;12.55;;;11.13;;
18066;SDS011;9158;51.528;7.192;2023-05-10T03:12:04;12.55;;;10.70;;
18066;SDS011;9158;51.528;7.192;2023-05-10T03:12:47;12.80;;;10.50;;
18066;SDS011;9158;51.528;7.192;2023-05-10T03:13:28;15.27;;;11.45;;
18066;SDS011;9158;51.528;7.192;2023-05-10T03:14:10;14.23;;;10.65;;
18066;SDS011;9158;51.528;7.192;2023-05-10T03:14:53;16.45;;;11.10;;
18066;SDS011;9158;51.528;7.192;2023-05-10T03:15:31;15.05;;;11.65;;
18066;SDS011;9158;51.528;7.192;2023-05-10T03:16:12;16.00;;;10.90;;
18066;SDS011;9158;51.528;7.192;2023-05-10T03:16:50;16.80;;;10.75;;
18066;SDS011;9158;51.528;7.192;2023-05-10T03:17:29;12.98;;;10.70;;
18066;SDS011;9158;51.528;7.192;2023-05-10T03:18:06;14.07;;;10.52;;
18066;SDS011;9158;51.528;7.192;2023-05-10T03:18:42;13.23;;;11.02;;
18066;SDS011;9158;51.528;7.192;2023-05-10T03:19:21;14.30;;;11.43;;
18066;SDS011;9158;51.528;7.192;2023-05-10T03:19:57;16.08;;;12.27;;
18066;SDS011;9158;51.528;7.192;2023-05-10T03:20:35;15.73;;;11.10;;
18066;SDS011;9158;51.528;7.192;2023-05-10T03:21:09;13.73;;;11.55;;
18066;SDS011;9158;51.528;7.192;2023-05-10T03:21:47;14.02;;;11.52;;
18066;SDS011;9158;51.528;7.192;2023-05-10T03:22:23;14.95;;;11.43;;
18066;SDS011;9158;51.528;7.192;2023-05-10T03:22:59;14.98;;;11.98;;
18066;SDS011;9158;51.528;7.192;2023-05-10T03:23:35;14.10;;;10.75;;
18066;SDS011;9158;51.528;7.192;2023-05-10T03:24:12;15.77;;;12.55;;
18066;SDS011;9158;51.528;7.192;2023-05-10T03:24:46;14.13;;;11.93;;
18066;SDS011;9158;51.528;7.192;2023-05-10T03:25:20;14.57;;;12.73;;
18066;SDS011;9158;51.528;7.192;2023-05-10T03:25:52;13.63;;;11.57;;
18066;SDS011;9158;51.528;7.192;2023-05-10T03:26:23;13.85;;;11.48;;
18066;SDS011;9158;51.528;7.192;2023-05-10T03:27:03;14.55;;;11.20;;
18066;SDS011;9158;51.528;7.192;2023-05-10T03:27:36;14.35;;;12.10;;